• Join FlightAware (Why Join?)
  • Login
  • US Flag 
07:11PM EDT


 

Airport Tracker/Info


-or-


 

Live Flight TrackerFlight Track Log ✈ DAL1851 ✈ 20-Apr-2013 ✈ KLAS - KMSP

Flight Track Log - Related Links

Times and Time Zones

All times are in EDT time to prevent confusion due to time zone crossing. See the DAL1851 flight status page for this flight to view local times or setup timezone preferences in your user account.

Time Position Orientation Groundspeed Altitude Reporting Facility
EDT Latitude Longitude Course Direction KTS MPH feet Rate Location/Type
12:18PM 36.1067 -115.1500 90° East 162 186 3,000  Level Los Angeles Center
12:20PM 36.1314 -115.0703 69° East 260 299 4,900 1,860 Climbing Los Angeles Center
12:21PM 36.1762 -114.7072 39° Northeast  Level FlightAware Approximate
12:21PM 36.1389 -114.9747 84° East 275 316 7,500  Level Los Angeles Center
12:22PM 36.1833 -114.5555 90° East  Level FlightAware Approximate
12:22PM 36.1533 -114.8483 82° East 308 354 10,600  Level Los Angeles Center
12:23PM 36.1833 -114.3996 90° East  Level FlightAware Approximate
12:23PM 36.1756 -114.7461 75° East 308 354 13,600  Level Los Angeles Center
12:24PM 36.1833 -114.2437 90° East  Level FlightAware Approximate
12:24PM 36.1881 -114.6342 82° East 346 398 15,200  Level Los Angeles Center
12:25PM 36.1897 -114.5025 89° East 382 440 16,300 1,200 Climbing Los Angeles Center
12:26PM 36.1919 -114.3586 89° East 413 475 17,800 1,680 Climbing Los Angeles Center
12:27PM 36.2256 -114.1889 76° East 426 490 19,800 1,680 Climbing Los Angeles Center
12:28PM 36.2614 -114.0467 73° East 431 496 21,300 1,500 Climbing Los Angeles Center
12:29PM 36.3022 -113.9058 70° East 435 501 22,900 1,200 Climbing Los Angeles Center
12:30PM 36.3658 -113.7806 58° Northeast 430 495 23,900 840 Climbing Los Angeles Center
12:31PM 36.4356 -113.6603 54° Northeast 431 496 24,700 840 Climbing Los Angeles Center
12:32PM 36.5192 -113.5167 54° Northeast 441 507 25,700 1,020 Climbing Los Angeles Center
12:33PM 36.5914 -113.3903 55° Northeast 448 516 26,900 1,080 Climbing Los Angeles Center
12:34PM 36.6639 -113.2650 54° Northeast 448 516 28,000 960 Climbing Los Angeles Center
12:35PM 36.7344 -113.1372 55° Northeast 449 517 28,900 840 Climbing Los Angeles Center
12:37PM 36.8058 -113.0108 55° Northeast 449 517 30,000 780 Climbing Los Angeles Center
12:38PM 36.9053 -112.8378 54° Northeast 442 509 30,700 480 Climbing Los Angeles Center
12:39PM 36.9789 -112.7094 54° Northeast 452 520 31,000 120 Climbing Los Angeles Center
12:40PM 37.0506 -112.5831 55° Northeast 451 519 31,000  Level Los Angeles Center
12:41PM 37.1214 -112.4569 55° Northeast 448 516 31,000  Level Los Angeles Center
12:42PM 37.2069 -112.3050 55° Northeast 448 516 31,000  Level Los Angeles Center
12:43PM 37.2647 -112.2014 55° Northeast 453 521 31,000  Level Los Angeles Center
12:44PM 37.3508 -112.0472 55° Northeast 454 522 31,000  Level Los Angeles Center
12:44PM 37.3939 -111.9697 55° Northeast 454 522 31,000  Level Salt Lake Center
12:45PM 37.4647 -111.8397 56° Northeast 451 519 31,000  Level Denver Center
12:46PM 37.5356 -111.7056 56° Northeast 459 528 31,000  Level Denver Center
12:48PM 37.6208 -111.5486 56° Northeast 455 524 31,000  Level Denver Center
12:49PM 37.6919 -111.4192 55° Northeast 452 520 31,000  Level Salt Lake Center
12:50PM 37.7617 -111.2867 56° Northeast 454 522 31,000  Level Salt Lake Center
12:51PM 37.8339 -111.1531 56° Northeast 460 529 31,000  Level Salt Lake Center
12:52PM 37.9061 -111.0183 56° Northeast 463 533 31,000  Level Salt Lake Center
12:53PM 37.9842 -110.8697 56° Northeast 463 533 31,000  Level Salt Lake Center
12:54PM 38.0511 -110.7406 57° Northeast 460 529 31,000  Level Salt Lake Center
12:55PM 38.1194 -110.6117 56° Northeast 460 529 31,000  Level Salt Lake Center
12:55PM 38.1303 -110.5892 59° Northeast 460 529 31,000  Level Denver Center
12:56PM 38.1978 -110.4583 57° Northeast 463 533 31,000  Level Denver Center
12:57PM 38.2881 -110.2853 56° Northeast 461 531 31,000  Level Denver Center
12:58PM 38.3658 -110.1328 57° Northeast 460 529 31,000  Level Denver Center
12:59PM 38.4114 -110.0486 55° Northeast 457 526 31,000  Level Salt Lake Center
12:59PM 38.4336 -110.0058 56° Northeast 456 525 31,000  Level Denver Center
01:00PM 38.5106 -109.8528 57° Northeast 458 527 31,000  Level Denver Center
01:01PM 38.5781 -109.7219 57° Northeast 460 529 31,000  Level Denver Center
01:02PM 38.6558 -109.5714 56° Northeast 454 522 31,000  Level Denver Center
01:03PM 38.7211 -109.4369 58° Northeast 460 529 31,000  Level Denver Center
01:04PM 38.7867 -109.3075 57° Northeast 454 522 31,000  Level Denver Center
01:05PM 38.8636 -109.1547 57° Northeast 457 526 31,000  Level Denver Center
01:06PM 38.9300 -109.0247 57° Northeast 457 526 31,000  Level Denver Center
01:07PM 39.0061 -108.8703 58° Northeast 460 529 31,000  Level Denver Center
01:08PM 39.0711 -108.7381 58° Northeast 459 528 31,000  Level Denver Center
01:09PM 39.1467 -108.5847 58° Northeast 457 526 31,000  Level Denver Center
01:10PM 39.2111 -108.4533 58° Northeast 457 526 31,000  Level Denver Center
01:11PM 39.2867 -108.2989 58° Northeast 460 529 31,000  Level Denver Center
01:13PM 39.3503 -108.1664 58° Northeast 457 526 31,000  Level Denver Center
01:14PM 39.4264 -108.0103 58° Northeast 461 531 31,000  Level Denver Center
01:15PM 39.4903 -107.8769 58° Northeast 458 527 31,000  Level Denver Center
01:16PM 39.5642 -107.7197 59° Northeast 459 528 31,000  Level Denver Center
01:17PM 39.6289 -107.5850 58° Northeast 461 531 31,000  Level Denver Center
01:18PM 39.7014 -107.4311 58° Northeast 451 519 31,000  Level Denver Center
01:19PM 39.7647 -107.2983 58° Northeast 451 519 31,000  Level Denver Center
01:20PM 39.8367 -107.1458 58° Northeast 452 520 31,000  Level Denver Center
01:21PM 39.9033 -107.0047 58° Northeast 454 522 31,000  Level Denver Center
01:22PM 39.9642 -106.8739 59° Northeast 456 525 31,000  Level Denver Center
01:23PM 40.0378 -106.7153 59° Northeast 459 528 31,000  Level Denver Center
01:24PM 40.0997 -106.5808 59° Northeast 454 522 31,000  Level Denver Center
01:25PM 40.1706 -106.4269 59° Northeast 451 519 31,000  Level Denver Center
01:26PM 40.2339 -106.2897 59° Northeast 451 519 31,000  Level Denver Center
01:27PM 40.3011 -106.1414 59° Northeast 455 524 31,000  Level Denver Center
01:28PM 40.3667 -105.9947 60° Northeast 461 531 31,000  Level Denver Center
01:29PM 40.4322 -105.8483 59° Northeast 460 529 31,000  Level Denver Center
01:30PM 40.4975 -105.7042 59° Northeast 454 522 31,000  Level Denver Center
01:31PM 40.5736 -105.5311 60° Northeast 462 532 31,000  Level Denver Center
01:32PM 40.6383 -105.3842 60° Northeast 460 529 31,000  Level Denver Center
01:33PM 40.7042 -105.2356 60° Northeast 462 532 31,000  Level Denver Center
01:34PM 40.7694 -105.0883 60° Northeast 460 529 31,000  Level Denver Center
01:35PM 40.8339 -104.9414 60° Northeast 458 527 31,000  Level Denver Center
01:36PM 40.8989 -104.7933 60° Northeast 458 527 31,000  Level Denver Center
01:37PM 40.9633 -104.6467 60° Northeast 455 524 31,000  Level Denver Center
01:38PM 41.0325 -104.4858 60° Northeast 465 535 31,000  Level Denver Center
01:39PM 41.0933 -104.3447 60° Northeast 462 532 31,000  Level Denver Center
01:40PM 41.1631 -104.1792 61° Northeast 462 532 31,000  Level Denver Center
01:41PM 41.2233 -104.0369 61° Northeast 462 532 31,000  Level Denver Center
01:42PM 41.2928 -103.8714 61° Northeast 462 532 31,000  Level Denver Center
01:43PM 41.3517 -103.7311 61° Northeast 457 526 31,000  Level Denver Center
01:44PM 41.4219 -103.5631 61° Northeast 463 533 31,000  Level Denver Center
01:45PM 41.4808 -103.4208 61° Northeast 461 531 31,000  Level Denver Center
01:47PM 41.5497 -103.2553 61° Northeast 459 528 31,000  Level Denver Center
01:48PM 41.6089 -103.1122 61° Northeast 460 529 31,000  Level Denver Center
01:49PM 41.6669 -102.9703 61° Northeast 456 525 31,000  Level Denver Center
01:50PM 41.7367 -102.8011 61° Northeast 463 533 31,000  Level Denver Center
01:51PM 41.7953 -102.6572 61° Northeast 462 532 31,000  Level Denver Center
01:52PM 41.8642 -102.4864 62° Northeast 467 537 31,000  Level Denver Center
01:53PM 41.9225 -102.3397 62° Northeast 467 537 31,000  Level Denver Center
01:54PM 41.9928 -102.1633 62° Northeast 467 537 31,000  Level Denver Center
01:55PM 42.0525 -102.0144 62° Northeast 471 542 31,000  Level Denver Center
01:56PM 42.1117 -101.8658 62° Northeast 470 541 31,000  Level Denver Center
01:57PM 42.1794 -101.6925 62° Northeast 467 537 31,000  Level Denver Center
01:58PM 42.2375 -101.5431 62° Northeast 468 539 31,000  Level Denver Center
01:59PM 42.3056 -101.3681 62° Northeast 470 541 31,000  Level Denver Center
02:00PM 42.3631 -101.2192 62° Northeast 468 539 31,000  Level Denver Center
02:01PM 42.4300 -101.0417 63° Northeast 472 543 31,000  Level Denver Center
02:02PM 42.4886 -100.8906 62° Northeast 473 544 31,000  Level Denver Center
02:03PM 42.5461 -100.7392 63° Northeast 471 542 31,000  Level Denver Center
02:04PM 42.6228 -100.5336 63° Northeast 477 549 31,000  Level Denver Center
02:05PM 42.6900 -100.3544 63° Northeast 477 549 31,000  Level Denver Center
02:06PM 42.7497 -100.1917 63° Northeast 478 550 31,000  Level Denver Center
02:07PM 42.8086 -100.0328 63° Northeast 472 543 31,000  Level Denver Center
02:08PM 42.8683 -99.8722 63° Northeast 474 545 31,000  Level Denver Center
02:10PM 42.9386 -99.6781 64° Northeast 476 548 31,000  Level Minneapolis Center
02:11PM 42.9922 -99.5319 63° Northeast 480 552 31,000  Level Minneapolis Center
02:12PM 43.0639 -99.3319 64° Northeast 486 559 31,000  Level Minneapolis Center
02:13PM 43.1225 -99.1664 64° Northeast 483 556 31,000  Level Minneapolis Center
02:14PM 43.1767 -99.0150 64° Northeast 487 560 31,000  Level Minneapolis Center
02:15PM 43.2422 -98.8300 64° Northeast 490 564 31,000  Level Minneapolis Center
02:16PM 43.3019 -98.6631 64° Northeast 490 564 31,000  Level Minneapolis Center
02:17PM 43.3608 -98.4956 64° Northeast 489 563 31,000  Level Minneapolis Center
02:18PM 43.4197 -98.3261 64° Northeast 492 566 31,000  Level Minneapolis Center
02:19PM 43.4783 -98.1581 64° Northeast 491 565 31,000  Level Minneapolis Center
02:20PM 43.5483 -97.9558 64° Northeast 489 563 31,000  Level Minneapolis Center
02:21PM 43.6181 -97.7531 65° Northeast 490 564 31,000  Level Minneapolis Center
02:22PM 43.6769 -97.5814 65° Northeast 495 570 31,000  Level Minneapolis Center
02:23PM 43.7333 -97.4111 65° Northeast 491 565 31,000  Level Minneapolis Center
02:24PM 43.7903 -97.2406 65° Northeast 490 564 31,000  Level Minneapolis Center
02:25PM 43.8469 -97.0689 65° Northeast 491 565 31,000  Level Minneapolis Center
02:26PM 43.9033 -96.8969 65° Northeast 492 566 31,000  Level Minneapolis Center
02:27PM 43.9572 -96.7308 66° East 479 551 31,000  Level Minneapolis Center
02:28PM 44.0119 -96.5653 65° Northeast 474 545 31,000  Level Minneapolis Center
02:29PM 44.0775 -96.3644 66° East 479 551 31,000 -120 Level Minneapolis Center
02:30PM 44.1303 -96.2011 66° East 473 544 30,800 -540 Descending Minneapolis Center
02:31PM 44.1797 -96.0489 66° East 460 529 29,900 -1,080 Descending Minneapolis Center
02:32PM 44.2300 -95.8933 66° East 450 518 28,700 -1,320 Descending Minneapolis Center
02:33PM 44.2894 -95.7064 66° East 443 510 27,200 -1,320 Descending Minneapolis Center
02:34PM 44.3367 -95.5528 67° East 435 501 26,100 -1,080 Descending Minneapolis Center
02:35PM 44.3836 -95.4036 66° East 425 489 25,100 -960 Descending Minneapolis Center
02:36PM 44.4289 -95.2547 67° East 419 482 24,200 -900 Descending Minneapolis Center
02:37PM 44.4733 -95.1072 67° East 415 478 23,300 -720 Descending Minneapolis Center
02:38PM 44.5094 -94.9581 71° East 408 470 22,800 -780 Descending Minneapolis Center
02:39PM 44.5397 -94.8342 71° East 415 478 21,800 -1,860 Descending Minneapolis Center
02:40PM 44.5850 -94.6353 72° East 431 496 19,000 -2,820 Descending Minneapolis Center
02:42PM 44.6317 -94.4564 70° East 393 452 15,800 -2,760 Descending FAA TRACON SMA TRACON (SMA)
02:42PM 44.6408 -94.4119 74° East 386 444 15,100 -3,180 Descending FAA TRACON SMA TRACON (SMA)
02:42PM 44.6525 -94.3575 73° East 381 438 13,700 -3,480 Descending FAA TRACON SMA TRACON (SMA)
02:43PM 44.6617 -94.3144 73° East 376 433 12,800 -2,940 Descending FAA TRACON SMA TRACON (SMA)
02:43PM 44.6706 -94.2722 73° East 368 423 11,800 -2,520 Descending FAA TRACON SMA TRACON (SMA)
02:43PM 44.6803 -94.2314 71° East 362 417 11,200 -1,200 Descending FAA TRACON SMA TRACON (SMA)
02:44PM 44.6911 -94.1806 73° East 355 409 11,000 -300 Descending FAA TRACON SMA TRACON (SMA)
02:44PM 44.6994 -94.1397 74° East 354 407 11,000  Level FAA TRACON SMA TRACON (SMA)
02:44PM 44.7083 -94.0989 73° East 354 407 11,000  Level FAA TRACON SMA TRACON (SMA)
02:45PM 44.7197 -94.0489 72° East 352 405 11,000  Level FAA TRACON SMA TRACON (SMA)
02:45PM 44.7283 -94.0083 73° East 352 405 11,000  Level FAA TRACON SMA TRACON (SMA)
02:45PM 44.7389 -93.9575 74° East 353 406 11,000  Level FAA TRACON SMA TRACON (SMA)
02:46PM 44.7469 -93.9178 74° East 347 399 11,000  Level FAA TRACON SMA TRACON (SMA)
02:46PM 44.7556 -93.8808 72° East 330 380 11,000  Level FAA TRACON SMA TRACON (SMA)
02:46PM 44.7647 -93.8369 74° East 307 353 11,000  Level FAA TRACON SMA TRACON (SMA)
02:47PM 44.7722 -93.8033 73° East 296 341 11,000  Level FAA TRACON SMA TRACON (SMA)
02:47PM 44.7794 -93.7689 74° East 295 339 11,000  Level FAA TRACON SMA TRACON (SMA)
02:47PM 44.7892 -93.7275 72° East 293 337 11,000 -180 Level FAA TRACON SMA TRACON (SMA)
02:48PM 44.7958 -93.6936 74° East 293 337 10,900 -900 Descending FAA TRACON SMA TRACON (SMA)
02:48PM 44.8033 -93.6603 72° East 290 334 10,400 -1,680 Descending FAA TRACON SMA TRACON (SMA)
02:48PM 44.8131 -93.6192 72° East 288 331 9,800 -1,680 Descending FAA TRACON SMA TRACON (SMA)
02:49PM 44.8206 -93.5869 72° East 285 328 9,300 -1,680 Descending FAA TRACON SMA TRACON (SMA)
02:49PM 44.8281 -93.5550 72° East 282 325 8,700 -1,800 Descending FAA TRACON SMA TRACON (SMA)
02:49PM 44.8369 -93.5158 72° East 275 316 8,100 -720 Descending FAA TRACON SMA TRACON (SMA)
02:50PM 44.8497 -93.4564 73° East 256 295 8,000 -120 Descending FAA TRACON SMA TRACON (SMA)
02:50PM 44.8567 -93.4228 74° East 234 269 8,000  Level FAA TRACON SMA TRACON (SMA)
02:51PM 44.8628 -93.3967 72° East 229 264 8,000  Level FAA TRACON SMA TRACON (SMA)
02:51PM 44.8636 -93.3692 88° East 233 268 8,000  Level FAA TRACON SMA TRACON (SMA)
02:51PM 44.8472 -93.3436 132° Southeast 243 280 8,000  Level FAA TRACON SMA TRACON (SMA)
02:52PM 44.8272 -93.3364 166° South 243 280 8,000  Level FAA TRACON SMA TRACON (SMA)
02:52PM 44.8069 -93.3314 170° South 240 276 8,000 -600 Level FAA TRACON SMA TRACON (SMA)
02:52PM 44.7822 -93.3258 171° South 236 272 7,600 -1,680 Descending FAA TRACON SMA TRACON (SMA)
02:53PM 44.7625 -93.3214 171° South 234 269 6,900 -1,800 Descending FAA TRACON SMA TRACON (SMA)
02:53PM 44.7428 -93.3175 172° South 231 266 6,400 -1,800 Descending FAA TRACON SMA TRACON (SMA)
02:53PM 44.7192 -93.3133 173° South 226 260 5,700 -1,980 Descending FAA TRACON SMA TRACON (SMA)
02:54PM 44.7006 -93.3097 172° South 219 252 5,100 -1,800 Descending FAA TRACON SMA TRACON (SMA)
02:54PM 44.6825 -93.3061 172° South 215 247 4,500 -1,680 Descending FAA TRACON SMA TRACON (SMA)
02:54PM 44.6661 -93.2869 140° Southeast 219 252 4,000 -780 Descending FAA TRACON SMA TRACON (SMA)
02:55PM 44.6661 -93.2636 90° East 212 244 4,000  Level FAA TRACON SMA TRACON (SMA)
02:55PM 44.6783 -93.2414 52° Northeast 206 237 4,000  Level FAA TRACON SMA TRACON (SMA)
02:55PM 44.6936 -93.2314 25° Northeast 197 227 4,000  Level FAA TRACON SMA TRACON (SMA)
02:56PM 44.7078 -93.2208 28° Northeast 190 219 4,000 -1,080 Level FAA TRACON SMA TRACON (SMA)
02:56PM 44.7247 -93.2094 26° Northeast 174 200 3,300 -1,740 Descending FAA TRACON SMA TRACON (SMA)
02:56PM 44.7389 -93.2047 13° North 175 201 2,900 -1,320 Descending FAA TRACON SMA TRACON (SMA)